Time;durP1;ratioP1;P1;durP2;ratioP2;P2;SDS_P1;SDS_P2;PMS_P1;PMS_P2;Temp;Humidity;BMP_temperature;BMP_pressure;BME280_temperature;BME280_humidity;BME280_pressure;Samples;Min_cycle;Max_cycle;Signal;HPM_P1;HPM_P2
2023/12/18 00:01:58;;;;;;;15.23;7.82;;;;;;;5.12;100.00;103245.78;6313054;22;20007;-86
2023/12/18 00:04:24;;;;;;;13.55;8.07;;;;;;;5.14;100.00;103260.81;6312851;22;20011;-86
2023/12/18 00:06:49;;;;;;;14.80;7.78;;;;;;;5.10;100.00;103234.28;6340118;22;20417;-87
2023/12/18 00:09:14;;;;;;;12.38;8.25;;;;;;;5.26;100.00;103253.78;6286850;22;20007;-86
2023/12/18 00:11:40;;;;;;;14.82;8.50;;;;;;;5.28;100.00;103244.34;6286565;22;20014;-86
2023/12/18 00:14:05;;;;;;;17.45;8.50;;;;;;;5.27;100.00;103253.03;6340018;22;20030;-86
2023/12/18 00:16:30;;;;;;;16.80;8.30;;;;;;;5.17;100.00;103232.19;6339825;22;20003;-86
2023/12/18 00:18:56;;;;;;;16.00;8.43;;;;;;;5.32;100.00;103255.06;6312675;22;20093;-86
2023/12/18 00:21:21;;;;;;;13.80;8.23;;;;;;;5.21;100.00;103210.63;6312731;22;20003;-89
2023/12/18 00:23:46;;;;;;;16.75;7.93;;;;;;;5.39;100.00;103234.59;6286683;22;20003;-87
2023/12/18 00:26:12;;;;;;;16.48;8.82;;;;;;;5.39;100.00;103229.34;6286187;22;20006;-86
2023/12/18 00:28:37;;;;;;;18.00;8.98;;;;;;;5.10;100.00;103181.88;6312287;22;20007;-87
2023/12/18 00:31:03;;;;;;;17.45;8.90;;;;;;;5.31;100.00;103209.59;6312527;22;20077;-86
2023/12/18 00:33:28;;;;;;;17.02;9.05;;;;;;;5.32;100.00;103211.41;6312144;22;20003;-87
2023/12/18 00:35:53;;;;;;;13.57;8.98;;;;;;;5.42;100.00;103223.44;6312517;22;20006;-89
2023/12/18 00:38:19;;;;;;;18.38;9.40;;;;;;;5.03;100.00;103155.22;6339908;22;20007;-87
2023/12/18 00:40:44;;;;;;;16.05;8.90;;;;;;;5.35;100.00;103222.06;6339853;22;20087;-87
2023/12/18 00:43:11;;;;;;;18.17;9.52;;;;;;;5.41;100.00;103229.47;6312067;22;20007;-89
2023/12/18 00:45:37;;;;;;;18.42;9.40;;;;;;;5.41;100.00;103221.63;6312011;22;20015;-86
2023/12/18 00:48:02;;;;;;;16.27;8.88;;;;;;;5.45;100.00;103223.66;6312248;22;20051;-86
2023/12/18 00:50:28;;;;;;;18.63;9.60;;;;;;;5.15;100.00;103162.13;6285968;22;20026;-88
2023/12/18 00:52:53;;;;;;;18.50;9.55;;;;;;;5.39;100.00;103210.09;6286402;22;20010;-86
2023/12/18 00:55:18;;;;;;;18.77;9.68;;;;;;;5.42;100.00;103211.22;6286437;22;20014;-88
2023/12/18 00:57:44;;;;;;;17.33;9.45;;;;;;;5.44;100.00;103213.97;6286462;22;20372;-87
2023/12/18 01:00:10;;;;;;;17.40;9.18;;;;;;;5.38;100.00;103203.94;6312123;22;20042;-88
2023/12/18 01:02:36;;;;;;;16.40;9.75;;;;;;;5.42;100.00;103208.59;6312182;22;20018;-86
2023/12/18 01:05:01;;;;;;;19.77;10.32;;;;;;;5.44;100.00;103209.63;6339370;22;20015;-85
2023/12/18 01:07:29;;;;;;;19.02;10.40;;;;;;;5.48;100.00;103210.72;6311837;22;20076;-86
2023/12/18 01:09:58;;;;;;;17.35;10.27;;;;;;;5.42;100.00;103199.84;6287568;22;20007;-86
2023/12/18 01:12:24;;;;;;;17.83;10.10;;;;;;;5.42;100.00;103205.06;6339661;22;20007;-86
2023/12/18 01:14:50;;;;;;;21.73;11.27;;;;;;;5.35;100.00;103179.22;6311746;22;20017;-86
2023/12/18 01:17:15;;;;;;;21.42;10.95;;;;;;;5.47;100.00;103203.69;6339686;22;20078;-86
2023/12/18 01:19:40;;;;;;;20.42;11.13;;;;;;;5.41;100.00;103203.25;6311776;22;20018;-86
2023/12/18 01:22:06;;;;;;;18.35;10.18;;;;;;;5.52;100.00;103215.38;6312101;22;20042;-86
2023/12/18 01:24:31;;;;;;;19.88;10.68;;;;;;;5.52;100.00;103205.84;6338886;22;20007;-86
2023/12/18 01:26:56;;;;;;;18.73;10.60;;;;;;;5.50;100.00;103196.03;6311975;22;20006;-87
2023/12/18 01:29:22;;;;;;;20.67;11.07;;;;;;;5.50;100.00;103194.31;6311708;22;20455;-86
2023/12/18 01:31:47;;;;;;;19.05;10.27;;;;;;;5.52;100.00;103197.97;6285546;22;20089;-86
2023/12/18 01:34:12;;;;;;;22.40;10.75;;;;;;;5.51;100.00;103192.59;6311397;22;20011;-86
2023/12/18 01:36:38;;;;;;;21.38;11.38;;;;;;;5.44;100.00;103180.78;6339291;22;20085;-86
2023/12/18 01:39:03;;;;;;;20.15;10.52;;;;;;;5.55;100.00;103201.59;6339255;22;20084;-86
2023/12/18 01:41:29;;;;;;;22.30;11.32;;;;;;;5.55;100.00;103197.25;6285843;22;20050;-86
2023/12/18 01:43:54;;;;;;;21.60;11.07;;;;;;;5.56;100.00;103193.81;6311496;22;20034;-86
2023/12/18 01:46:24;;;;;;;19.13;11.02;;;;;;;5.67;100.00;103212.94;6311194;22;20371;-86
2023/12/18 01:48:50;;;;;;;19.02;10.55;;;;;;;5.61;100.00;103216.06;6311430;22;20011;-86
2023/12/18 01:51:17;;;;;;;19.63;11.00;;;;;;;5.67;100.00;103215.56;6339432;22;20488;-86
2023/12/18 01:53:45;;;;;;;21.25;10.93;;;;;;;5.59;100.00;103190.50;6339067;22;20010;-85
2023/12/18 01:56:13;;;;;;;21.10;11.30;;;;;;;5.69;100.00;103216.56;6338816;22;20003;-86
2023/12/18 01:58:41;;;;;;;19.13;11.43;;;;;;;5.63;100.00;103210.91;6339156;22;20081;-86
2023/12/18 02:01:08;;;;;;;20.45;11.57;;;;;;;5.67;100.00;103218.19;6339165;22;19998;-87
2023/12/18 02:03:34;;;;;;;18.75;11.65;;;;;;;5.42;100.00;103168.38;6339026;22;20053;-86
2023/12/18 02:06:00;;;;;;;21.38;11.48;;;;;;;5.64;100.00;103200.50;6339083;22;20038;-86
2023/12/18 02:08:26;;;;;;;19.77;11.73;;;;;;;5.57;100.00;103166.81;6338575;22;20452;-85
2023/12/18 02:10:55;;;;;;;25.60;12.10;;;;;;;5.69;100.00;103192.94;6311330;22;20003;-88
2023/12/18 02:13:21;;;;;;;22.33;11.93;;;;;;;5.63;100.00;103177.72;6338706;22;20063;-88
2023/12/18 02:15:47;;;;;;;21.33;12.10;;;;;;;5.72;100.00;103188.81;6338235;22;20018;-85
2023/12/18 02:18:14;;;;;;;24.48;12.10;;;;;;;5.74;100.00;103202.06;6311256;22;20126;-85
2023/12/18 02:20:43;;;;;;;18.70;11.82;;;;;;;5.65;100.00;103172.56;6310740;22;20161;-86
2023/12/18 02:23:12;;;;;;;20.38;11.07;;;;;;;5.65;100.00;103170.88;6311056;22;20010;-86
2023/12/18 02:25:38;;;;;;;20.50;11.70;;;;;;;5.74;100.00;103192.47;6338830;22;20116;-85
2023/12/18 02:28:06;;;;;;;19.85;11.48;;;;;;;5.76;100.00;103189.94;6339010;22;20418;-85
2023/12/18 02:30:32;;;;;;;25.25;11.65;;;;;;;5.73;100.00;103180.13;6338910;22;20081;-87
2023/12/18 02:32:58;;;;;;;20.67;11.93;;;;;;;5.71;100.00;103183.47;6338998;22;20007;-86
2023/12/18 02:35:23;;;;;;;23.90;12.20;;;;;;;5.70;100.00;103184.28;6311042;22;20052;-86
2023/12/18 02:37:48;;;;;;;23.75;11.65;;;;;;;5.47;100.00;103143.38;6311545;22;20011;-86
2023/12/18 02:40:14;;;;;;;20.08;10.32;;;;;;;5.56;100.00;103154.47;6339047;22;20017;-86
2023/12/18 02:42:39;;;;;;;22.35;11.05;;;;;;;5.51;100.00;103150.63;6311128;22;20314;-86
2023/12/18 02:45:05;;;;;;;23.38;11.75;;;;;;;5.59;100.00;103175.69;6310877;22;20006;-87
2023/12/18 02:47:30;;;;;;;22.65;12.05;;;;;;;5.49;100.00;103157.50;6338440;22;20049;-85
2023/12/18 02:49:56;;;;;;;23.83;11.70;;;;;;;5.57;100.00;103174.69;6310546;22;20025;-86
2023/12/18 02:52:21;;;;;;;22.73;11.93;;;;;;;5.55;100.00;103168.41;6338478;22;20081;-87
2023/12/18 02:54:47;;;;;;;25.25;11.90;;;;;;;5.56;100.00;103154.47;6338907;22;20219;-86
2023/12/18 02:57:12;;;;;;;26.63;12.85;;;;;;;5.52;100.00;103150.78;6338908;22;20003;-86
2023/12/18 02:59:37;;;;;;;24.90;12.23;;;;;;;5.40;100.00;103125.41;6338859;22;20383;-86
2023/12/18 03:02:03;;;;;;;22.58;12.10;;;;;;;5.52;100.00;103149.81;6338799;22;20033;-86
2023/12/18 03:04:28;;;;;;;22.42;11.88;;;;;;;5.45;100.00;103138.03;6338814;22;20405;-86
2023/12/18 03:06:54;;;;;;;24.25;12.95;;;;;;;5.51;100.00;103143.69;6312593;22;20010;-86
2023/12/18 03:09:19;;;;;;;20.52;11.30;;;;;;;5.41;100.00;103119.38;6340738;22;20328;-87
2023/12/18 03:11:44;;;;;;;26.52;12.27;;;;;;;5.36;100.00;103126.91;6313238;22;20007;-87
2023/12/18 03:14:10;;;;;;;23.38;13.00;;;;;;;5.47;100.00;103139.03;6340597;22;20333;-86
2023/12/18 03:16:39;;;;;;;21.80;12.70;;;;;;;5.51;100.00;103148.03;6313150;22;20064;-86
2023/12/18 03:19:05;;;;;;;21.15;12.20;;;;;;;5.50;100.00;103151.44;6340414;22;20038;-86
2023/12/18 03:21:30;;;;;;;21.98;12.45;;;;;;;5.42;100.00;103135.19;6312943;22;20042;-86
2023/12/18 03:23:56;;;;;;;24.95;13.23;;;;;;;5.52;100.00;103139.34;6340703;22;20003;-86
2023/12/18 03:26:22;;;;;;;22.55;13.48;;;;;;;5.56;100.00;103159.72;6312616;22;20053;-86
2023/12/18 03:28:47;;;;;;;24.20;12.30;;;;;;;5.49;100.00;103133.91;6313077;22;20014;-86
2023/12/18 03:31:14;;;;;;;24.38;12.60;;;;;;;5.43;100.00;103121.28;6340288;22;20078;-86
2023/12/18 03:33:39;;;;;;;24.27;13.23;;;;;;;5.59;100.00;103143.31;6313024;22;20056;-85
2023/12/18 03:36:05;;;;;;;25.25;12.95;;;;;;;5.57;100.00;103137.97;6340707;22;20007;-86
2023/12/18 03:38:31;;;;;;;29.83;12.95;;;;;;;5.60;100.00;103135.53;6340165;22;20026;-86
2023/12/18 03:40:56;;;;;;;26.85;13.20;;;;;;;5.59;100.00;103138.97;6312711;22;20026;-86
2023/12/18 03:43:23;;;;;;;23.58;12.82;;;;;;;5.59;100.00;103148.53;6340438;22;20332;-87
2023/12/18 03:45:48;;;;;;;31.02;12.93;;;;;;;5.61;100.00;103141.69;6312224;22;20089;-86
2023/12/18 03:48:14;;;;;;;23.00;12.70;;;;;;;5.60;100.00;103135.53;6340016;22;20038;-86
2023/12/18 03:50:39;;;;;;;21.38;11.68;;;;;;;5.65;100.00;103144.66;6312525;22;20049;-86
2023/12/18 03:53:05;;;;;;;25.00;14.05;;;;;;;5.64;100.00;103144.50;6312940;22;20488;-86
2023/12/18 03:55:30;;;;;;;27.73;13.30;;;;;;;5.63;100.00;103140.09;6286968;22;20017;-86
2023/12/18 03:57:55;;;;;;;24.90;13.27;;;;;;;5.70;100.00;103153.72;6312644;22;20037;-86
2023/12/18 04:00:21;;;;;;;25.38;12.15;;;;;;;5.55;100.00;103120.28;6340260;22;20322;-87
2023/12/18 04:02:46;;;;;;;27.58;12.88;;;;;;;5.68;100.00;103152.69;6340259;22;20421;-86
2023/12/18 04:05:12;;;;;;;29.20;13.77;;;;;;;5.68;100.00;103152.69;6312320;22;20002;-86
2023/12/18 04:07:37;;;;;;;25.38;12.95;;;;;;;5.63;100.00;103145.31;6339810;22;20086;-86
2023/12/18 04:10:03;;;;;;;25.40;13.50;;;;;;;5.57;100.00;103140.59;6312311;22;20006;-86
2023/12/18 04:12:29;;;;;;;25.98;13.57;;;;;;;5.64;100.00;103155.00;6312978;22;20383;-86
2023/12/18 04:14:54;;;;;;;25.05;13.95;;;;;;;5.64;100.00;103150.66;6312517;22;20044;-86
2023/12/18 04:17:19;;;;;;;24.33;13.25;;;;;;;5.40;100.00;103109.69;6339396;22;20011;-86
2023/12/18 04:19:45;;;;;;;26.85;14.10;;;;;;;5.57;100.00;103144.91;6286722;22;20011;-87
2023/12/18 04:22:10;;;;;;;35.95;13.70;;;;;;;5.59;100.00;103138.97;6312493;22;20029;-86
2023/12/18 04:24:36;;;;;;;27.10;14.82;;;;;;;5.57;100.00;103140.59;6339791;22;20011;-85
2023/12/18 04:27:01;;;;;;;26.73;13.55;;;;;;;5.57;100.00;103148.47;6286732;22;20060;-86
2023/12/18 04:29:26;;;;;;;26.20;13.65;;;;;;;5.59;100.00;103138.06;6340030;22;20031;-87
2023/12/18 04:31:52;;;;;;;24.52;13.45;;;;;;;5.63;100.00;103137.47;6312318;22;20007;-87
2023/12/18 04:34:17;;;;;;;24.67;13.77;;;;;;;5.46;100.00;103111.00;6340016;22;20077;-87
2023/12/18 04:36:43;;;;;;;28.75;14.50;;;;;;;5.41;100.00;103098.38;6312264;22;20007;-87
2023/12/18 04:39:12;;;;;;;28.65;14.18;;;;;;;5.57;100.00;103126.53;6312297;22;20468;-87
2023/12/18 04:41:37;;;;;;;25.17;13.95;;;;;;;5.60;100.00;103127.66;6311786;22;20022;-86
2023/12/18 04:44:05;;;;;;;27.92;14.43;;;;;;;5.62;100.00;103133.94;6286574;22;20329;-86
2023/12/18 04:46:35;;;;;;;30.30;14.80;;;;;;;5.65;100.00;103134.16;6339894;22;20006;-86
2023/12/18 04:49:01;;;;;;;32.38;14.52;;;;;;;5.65;100.00;103134.16;6339333;22;20007;-86
2023/12/18 04:51:27;;;;;;;25.45;13.63;;;;;;;5.63;100.00;103125.25;6339290;22;20022;-86
2023/12/18 04:53:52;;;;;;;25.08;14.15;;;;;;;5.56;100.00;103111.63;6339739;22;20002;-86
2023/12/18 04:56:18;;;;;;;23.95;13.63;;;;;;;5.69;100.00;103128.28;6312318;22;20094;-86
2023/12/18 04:58:43;;;;;;;27.30;13.75;;;;;;;5.69;100.00;103124.75;6339737;22;20010;-86
2023/12/18 05:01:10;;;;;;;26.42;12.25;;;;;;;5.69;100.00;103124.75;6339692;22;20090;-87
2023/12/18 05:03:36;;;;;;;31.48;13.85;;;;;;;5.63;100.00;103120.00;6339346;22;20068;-86
2023/12/18 05:06:01;;;;;;;26.10;13.20;;;;;;;5.55;100.00;103110.72;6339691;22;20007;-86
2023/12/18 05:08:27;;;;;;;24.52;12.45;;;;;;;5.69;100.00;103133.50;6339377;22;20341;-86
2023/12/18 05:10:52;;;;;;;31.27;13.70;;;;;;;5.55;100.00;103108.09;6311482;22;20437;-86
2023/12/18 05:13:17;;;;;;;25.45;13.10;;;;;;;5.64;100.00;103124.44;6312069;22;20014;-86
2023/12/18 05:15:43;;;;;;;30.13;13.45;;;;;;;5.71;100.00;103129.31;6311598;22;20007;-86
2023/12/18 05:18:08;;;;;;;29.88;14.52;;;;;;;5.69;100.00;103123.03;6311736;22;20421;-86
2023/12/18 05:20:34;;;;;;;25.83;13.57;;;;;;;5.65;100.00;103118.41;6311827;22;20045;-87
2023/12/18 05:22:59;;;;;;;26.88;14.00;;;;;;;5.65;100.00;103118.41;6312080;22;20030;-86
2023/12/18 05:25:25;;;;;;;30.58;14.02;;;;;;;5.57;100.00;103087.19;6311547;22;20052;-86
2023/12/18 05:27:50;;;;;;;32.08;13.98;;;;;;;5.54;100.00;103101.03;6311837;22;20003;-86
2023/12/18 05:30:15;;;;;;;28.75;14.13;;;;;;;5.63;100.00;103106.00;6338825;22;20034;-86
2023/12/18 05:32:41;;;;;;;29.15;13.95;;;;;;;5.47;100.00;103086.59;6339521;22;20029;-86
2023/12/18 05:35:07;;;;;;;28.85;13.43;;;;;;;5.67;100.00;103118.50;6311816;22;20007;-86
2023/12/18 05:37:32;;;;;;;28.35;13.77;;;;;;;5.69;100.00;103123.03;6311673;22;20013;-87
2023/12/18 05:39:57;;;;;;;30.27;14.57;;;;;;;5.59;100.00;103112.72;6311803;22;20093;-86
2023/12/18 05:42:23;;;;;;;29.85;14.52;;;;;;;5.73;100.00;103125.06;6311809;22;20060;-87
2023/12/18 05:44:48;;;;;;;29.55;14.10;;;;;;;5.75;100.00;103127.81;6339197;22;20421;-87
2023/12/18 05:47:14;;;;;;;27.65;14.45;;;;;;;5.65;100.00;103115.78;6339062;22;20006;-86
2023/12/18 05:49:39;;;;;;;30.88;14.68;;;;;;;5.74;100.00;103137.38;6285459;22;20014;-85
2023/12/18 05:52:05;;;;;;;35.65;15.00;;;;;;;5.72;100.00;103133.72;6339472;22;20007;-85
2023/12/18 05:54:31;;;;;;;32.15;15.23;;;;;;;5.70;100.00;103129.22;6311787;22;20041;-85
2023/12/18 05:56:57;;;;;;;26.42;13.63;;;;;;;5.73;100.00;103142.50;6339248;22;20030;-87
2023/12/18 05:59:22;;;;;;;25.48;13.40;;;;;;;5.75;100.00;103135.66;6311642;22;20418;-86
2023/12/18 06:01:47;;;;;;;30.92;13.77;;;;;;;5.59;100.00;103091.75;6311433;22;20108;-86
2023/12/18 06:04:13;;;;;;;31.67;13.38;;;;;;;5.66;100.00;103101.88;6285366;22;20064;-86
2023/12/18 06:06:39;;;;;;;29.60;14.35;;;;;;;5.71;100.00;103113.56;6339195;22;20073;-86
2023/12/18 06:09:04;;;;;;;32.90;16.60;;;;;;;5.75;100.00;103130.41;6338736;22;20010;-86
2023/12/18 06:11:30;;;;;;;28.27;13.77;;;;;;;5.70;100.00;103124.88;6311045;22;20013;-86
2023/12/18 06:13:57;;;;;;;27.00;13.75;;;;;;;5.72;100.00;103130.22;6311262;22;20010;-86
2023/12/18 06:16:23;;;;;;;31.83;14.52;;;;;;;5.69;100.00;103124.75;6339208;22;20003;-86
2023/12/18 06:18:48;;;;;;;27.15;13.98;;;;;;;5.60;100.00;103117.16;6311656;22;20059;-86
2023/12/18 06:21:13;;;;;;;28.05;13.80;;;;;;;5.69;100.00;103135.25;6339180;22;20313;-86
2023/12/18 06:23:39;;;;;;;33.85;16.13;;;;;;;5.60;100.00;103109.31;6338783;22;20337;-86
2023/12/18 06:26:05;;;;;;;31.83;14.07;;;;;;;5.65;100.00;103121.03;6311580;22;20038;-86
2023/12/18 06:28:30;;;;;;;29.88;13.48;;;;;;;5.54;100.00;103103.66;6311238;22;20003;-86
2023/12/18 06:30:55;;;;;;;35.00;15.10;;;;;;;5.67;100.00;103129.91;6311354;22;20010;-87
2023/12/18 06:33:21;;;;;;;36.55;14.38;;;;;;;5.64;100.00;103123.53;6310898;22;20014;-89
2023/12/18 06:35:46;;;;;;;34.13;15.95;;;;;;;5.50;100.00;103101.63;6311454;22;20037;-87
2023/12/18 06:38:12;;;;;;;24.70;14.57;;;;;;;5.62;100.00;103120.81;6311147;22;20482;-87
2023/12/18 06:40:37;;;;;;;28.20;14.32;;;;;;;5.49;100.00;103092.84;6338279;22;20010;-87
2023/12/18 06:43:02;;;;;;;31.02;14.23;;;;;;;5.53;100.00;103100.13;6311180;22;20014;-87
2023/12/18 06:45:28;;;;;;;28.25;14.20;;;;;;;5.67;100.00;103116.78;6338387;22;20459;-87
2023/12/18 06:47:53;;;;;;;31.25;14.43;;;;;;;5.54;100.00;103095.78;6338866;22;20086;-86
2023/12/18 06:50:19;;;;;;;30.33;14.60;;;;;;;5.61;100.00;103104.97;6310744;22;20019;-86
2023/12/18 06:52:45;;;;;;;29.85;13.40;;;;;;;5.69;100.00;103122.13;6311198;22;20007;-88
2023/12/18 06:55:10;;;;;;;27.00;13.98;;;;;;;5.59;100.00;103101.34;6338925;22;20068;-87
2023/12/18 06:57:35;;;;;;;29.52;14.40;;;;;;;5.68;100.00;103120.31;6311079;22;20011;-86
2023/12/18 07:00:01;;;;;;;28.10;14.10;;;;;;;5.69;100.00;103122.13;6338503;22;20015;-86
2023/12/18 07:02:26;;;;;;;29.85;14.20;;;;;;;5.62;100.00;103115.56;6338590;22;20433;-86
2023/12/18 07:04:52;;;;;;;25.75;13.98;;;;;;;5.62;100.00;103112.94;6311131;22;20008;-87
2023/12/18 07:07:18;;;;;;;38.03;15.85;;;;;;;5.70;100.00;103134.47;6338907;22;20171;-86
2023/12/18 07:09:44;;;;;;;30.13;15.52;;;;;;;5.61;100.00;103107.59;6311062;22;20006;-87
2023/12/18 07:12:09;;;;;;;33.13;14.85;;;;;;;5.72;100.00;103125.88;6311066;22;20011;-87
2023/12/18 07:14:38;;;;;;;30.42;16.02;;;;;;;5.67;100.00;103134.25;6338247;22;20010;-87
2023/12/18 07:17:04;;;;;;;35.15;15.70;;;;;;;5.69;100.00;103116.88;6338876;22;20152;-87
2023/12/18 07:19:29;;;;;;;32.15;15.43;;;;;;;5.70;100.00;103123.97;6310887;22;20007;-87
2023/12/18 07:21:55;;;;;;;38.47;16.67;;;;;;;5.61;100.00;103111.16;6285066;22;20014;-86
2023/12/18 07:24:20;;;;;;;27.10;14.52;;;;;;;5.72;100.00;103128.50;6285416;22;20013;-88
2023/12/18 07:26:45;;;;;;;30.42;15.75;;;;;;;5.69;100.00;103122.13;6310762;22;20007;-87
2023/12/18 07:29:11;;;;;;;32.67;14.35;;;;;;;5.57;100.00;103109.13;6310725;22;20010;-87
2023/12/18 07:31:36;;;;;;;32.58;14.88;;;;;;;5.72;100.00;103133.72;6338340;22;20447;-87
2023/12/18 07:34:02;;;;;;;27.27;14.30;;;;;;;5.77;100.00;103137.56;6311199;22;20006;-86
2023/12/18 07:36:27;;;;;;;29.00;14.02;;;;;;;5.78;100.00;103142.03;6285268;22;20088;-86
2023/12/18 07:38:52;;;;;;;32.28;14.05;;;;;;;5.80;100.00;103136.88;6310589;22;20045;-87
2023/12/18 07:41:18;;;;;;;31.35;14.88;;;;;;;5.62;100.00;103112.03;6310990;22;20106;-87
2023/12/18 07:43:44;;;;;;;36.13;14.65;;;;;;;5.72;100.00;103123.25;6310911;22;20003;-87
2023/12/18 07:46:18;;;;;;;30.00;15.00;;;;;;;5.67;100.00;103121.13;6338319;22;20090;-87
2023/12/18 07:48:47;;;;;;;29.00;13.18;;;;;;;5.79;100.00;103137.69;6311251;22;20002;-86
2023/12/18 07:51:12;;;;;;;32.05;15.55;;;;;;;5.68;100.00;103125.56;6310150;22;20073;-86
2023/12/18 07:53:38;;;;;;;33.17;15.30;;;;;;;5.73;100.00;103125.06;6312592;22;20011;-86
2023/12/18 07:56:04;;;;;;;28.60;13.68;;;;;;;5.63;100.00;103108.59;6312081;22;20074;-86
2023/12/18 07:58:30;;;;;;;30.30;14.43;;;;;;;5.77;100.00;103137.56;6312512;22;20002;-86
2023/12/18 08:00:55;;;;;;;33.75;14.73;;;;;;;5.63;100.00;103111.22;6312366;22;20026;-88
2023/12/18 08:03:21;;;;;;;31.00;14.93;;;;;;;5.62;100.00;103110.31;6312823;22;20003;-87
2023/12/18 08:05:46;;;;;;;32.10;15.40;;;;;;;5.71;100.00;103134.56;6312910;22;20101;-86
2023/12/18 08:08:11;;;;;;;37.47;16.40;;;;;;;5.73;100.00;103130.28;6313065;22;20006;-85
2023/12/18 08:10:37;;;;;;;30.83;15.02;;;;;;;5.72;100.00;103125.88;6339774;22;20086;-86
2023/12/18 08:13:02;;;;;;;32.97;15.88;;;;;;;5.73;100.00;103130.28;6339460;22;20002;-86
2023/12/18 08:15:28;;;;;;;31.38;16.95;;;;;;;5.59;100.00;103089.13;6312047;22;20015;-85
2023/12/18 08:17:53;;;;;;;37.80;15.00;;;;;;;5.68;100.00;103105.47;6312051;22;20007;-85
2023/12/18 08:20:19;;;;;;;35.58;16.75;;;;;;;5.62;100.00;103094.59;6339759;22;20007;-86
2023/12/18 08:22:44;;;;;;;38.28;16.15;;;;;;;5.76;100.00;103117.41;6286341;22;20444;-87
2023/12/18 08:25:09;;;;;;;32.22;15.02;;;;;;;5.77;100.00;103108.72;6339603;22;20003;-87
2023/12/18 08:27:35;;;;;;;30.95;14.85;;;;;;;5.80;100.00;103114.97;6312283;22;20010;-86
2023/12/18 08:30:03;;;;;;;37.10;16.65;;;;;;;5.80;100.00;103107.13;6312216;22;20416;-86
2023/12/18 08:32:29;;;;;;;35.22;15.00;;;;;;;5.82;100.00;103105.50;6339127;22;20468;-85
2023/12/18 08:34:54;;;;;;;29.77;15.10;;;;;;;5.88;100.00;103113.78;6339457;22;20026;-84
2023/12/18 08:37:19;;;;;;;34.17;16.95;;;;;;;5.59;100.00;103056.75;6286289;22;20003;-86
2023/12/18 08:39:45;;;;;;;29.38;15.20;;;;;;;5.92;100.00;103115.84;6339503;22;20007;-88
2023/12/18 08:42:10;;;;;;;32.58;14.30;;;;;;;5.89;100.00;103112.97;6340840;22;20002;-86
2023/12/18 08:44:36;;;;;;;35.78;15.85;;;;;;;5.89;100.00;103106.00;6311672;22;20366;-86
2023/12/18 08:47:02;;;;;;;28.50;14.98;;;;;;;5.92;100.00;103113.22;6286014;22;20060;-85
2023/12/18 08:49:27;;;;;;;30.17;14.98;;;;;;;5.85;100.00;103088.25;6339288;22;20077;-85
2023/12/18 08:51:53;;;;;;;30.88;14.95;;;;;;;5.99;100.00;103100.56;6311649;22;20042;-86
2023/12/18 08:54:18;;;;;;;28.02;14.35;;;;;;;6.04;100.00;103100.91;6311579;22;20013;-85
2023/12/18 08:56:44;;;;;;;30.13;14.35;;;;;;;6.01;100.00;103090.19;6311667;22;20007;-85
2023/12/18 08:59:11;;;;;;;33.90;16.10;;;;;;;6.07;100.00;103095.84;6339160;22;20060;-85
2023/12/18 09:01:37;;;;;;;28.50;16.02;;;;;;;6.00;100.00;103097.16;6311636;22;20301;-87
2023/12/18 09:04:03;;;;;;;31.63;15.40;;;;;;;6.01;100.00;103092.81;6311082;22;20018;-86
2023/12/18 09:06:29;;;;;;;34.65;16.85;;;;;;;6.01;100.00;103095.44;6311870;22;20033;-86
2023/12/18 09:08:54;;;;;;;37.15;17.27;;;;;;;6.07;100.00;103098.47;6260001;22;20011;-85
2023/12/18 09:11:20;;;;;;;32.75;16.60;;;;;;;5.96;100.00;103079.41;6339113;22;20015;-86
2023/12/18 09:13:45;;;;;;;34.28;16.30;;;;;;;5.87;100.00;103054.25;6311483;22;20002;-87
2023/12/18 09:16:11;;;;;;;32.28;15.75;;;;;;;5.94;100.00;103069.59;6311327;22;20086;-87
2023/12/18 09:18:36;;;;;;;34.17;16.88;;;;;;;6.09;100.00;103094.22;6339055;22;20006;-86
2023/12/18 09:21:02;;;;;;;32.63;16.25;;;;;;;6.16;100.00;103100.78;6339007;22;20003;-87
2023/12/18 09:23:27;;;;;;;31.67;16.05;;;;;;;6.08;100.00;103084.56;6311519;22;20011;-85
2023/12/18 09:25:52;;;;;;;34.47;15.95;;;;;;;6.07;100.00;103071.31;6311381;22;20067;-85
2023/12/18 09:28:18;;;;;;;36.45;17.05;;;;;;;6.21;100.00;103091.47;6338942;22;20328;-85
2023/12/18 09:30:44;;;;;;;32.13;16.88;;;;;;;6.16;100.00;103093.78;6338483;22;20009;-86
2023/12/18 09:33:09;;;;;;;36.00;16.80;;;;;;;6.24;100.00;103099.56;6338985;22;20017;-86
2023/12/18 09:35:35;;;;;;;32.95;16.02;;;;;;;6.19;100.00;103099.25;6310942;22;20337;-87
2023/12/18 09:38:00;;;;;;;34.70;16.20;;;;;;;6.25;100.00;103106.59;6311621;22;20003;-89
2023/12/18 09:40:26;;;;;;;37.70;15.07;;;;;;;6.27;100.00;103105.00;6339115;22;20011;-88
2023/12/18 09:42:53;;;;;;;29.00;15.10;;;;;;;6.25;100.00;103104.91;6311369;22;20010;-88
2023/12/18 09:45:22;;;;;;;31.48;14.50;;;;;;;6.28;100.00;103104.19;6338898;22;20007;-87
2023/12/18 09:47:48;;;;;;;31.08;15.18;;;;;;;6.26;100.00;103103.19;6311271;22;20310;-88
2023/12/18 09:50:14;;;;;;;35.33;16.15;;;;;;;6.20;100.00;103098.44;6311328;22;20449;-86
2023/12/18 09:52:45;;;;;;;30.45;14.52;;;;;;;6.27;100.00;103095.41;6311308;22;20038;-88
2023/12/18 09:55:11;;;;;;;30.27;15.57;;;;;;;6.15;100.00;103073.63;6339077;22;20003;-87
2023/12/18 09:57:37;;;;;;;33.85;15.48;;;;;;;6.29;100.00;103100.75;6338476;22;20494;-87
2023/12/18 10:00:03;;;;;;;32.25;15.70;;;;;;;6.30;100.00;103097.34;6285496;22;20010;-87
2023/12/18 10:02:29;;;;;;;29.33;15.55;;;;;;;6.25;100.00;103081.28;6342208;22;20006;-87
2023/12/18 10:04:55;;;;;;;29.85;14.70;;;;;;;6.20;100.00;103071.28;6311297;22;20006;-87
2023/12/18 10:07:20;;;;;;;31.05;14.60;;;;;;;6.27;100.00;103086.63;6315222;22;20007;-87
2023/12/18 10:09:48;;;;;;;31.90;13.93;;;;;;;6.19;100.00;103069.47;6338793;22;20417;-87
2023/12/18 10:12:14;;;;;;;28.67;14.77;;;;;;;6.13;100.00;103064.75;6338936;22;20375;-85
2023/12/18 10:14:39;;;;;;;30.58;14.57;;;;;;;6.30;100.00;103091.19;6338975;22;20002;-86
2023/12/18 10:17:06;;;;;;;30.17;15.18;;;;;;;6.28;100.00;103089.34;6286151;22;20038;-87
2023/12/18 10:19:31;;;;;;;29.15;14.68;;;;;;;6.17;100.00;103071.09;6310920;22;20007;-85
2023/12/18 10:21:57;;;;;;;27.35;13.45;;;;;;;6.17;100.00;103066.75;6285301;22;20033;-86
2023/12/18 10:24:23;;;;;;;27.48;13.82;;;;;;;6.14;100.00;103063.94;6341304;22;20037;-86
2023/12/18 10:26:48;;;;;;;27.50;13.90;;;;;;;6.18;100.00;103060.69;6318510;22;20450;-86
2023/12/18 10:29:14;;;;;;;29.92;14.00;;;;;;;6.34;100.00;103091.47;6311556;22;20087;-87
2023/12/18 10:31:40;;;;;;;28.27;13.05;;;;;;;6.33;100.00;103087.00;6311330;22;20084;-87
2023/12/18 10:34:05;;;;;;;30.55;13.93;;;;;;;6.31;100.00;103080.75;6311403;22;20317;-86
2023/12/18 10:36:39;;;;;;;32.75;15.43;;;;;;;6.15;100.00;103060.50;6338691;22;20069;-86
2023/12/18 10:39:09;;;;;;;30.88;14.63;;;;;;;6.19;100.00;103064.22;6312113;22;20002;-88
2023/12/18 10:41:39;;;;;;;32.42;14.57;;;;;;;6.25;100.00;103067.22;6338529;22;20089;-86
2023/12/18 10:44:09;;;;;;;28.02;14.35;;;;;;;6.06;100.00;103030.13;6338697;22;20012;-87
2023/12/18 10:46:38;;;;;;;29.35;15.07;;;;;;;5.92;100.00;102998.66;6311066;22;20009;-87
2023/12/18 10:49:07;;;;;;;35.70;14.65;;;;;;;6.05;100.00;103008.22;6310756;22;20011;-87
2023/12/18 10:51:36;;;;;;;30.75;14.07;;;;;;;5.98;100.00;103006.91;6336367;22;20068;-88
2023/12/18 10:54:02;;;;;;;28.50;14.98;;;;;;;5.98;100.00;102996.41;6338673;22;20413;-86
2023/12/18 10:56:29;;;;;;;29.60;14.90;;;;;;;6.05;100.00;103007.31;6311027;22;20440;-86
2023/12/18 10:58:56;;;;;;;26.58;14.32;;;;;;;6.00;100.00;102984.31;6310472;22;20317;-86
2023/12/18 11:01:24;;;;;;;30.20;15.27;;;;;;;5.99;100.00;102981.56;6338725;22;20081;-88
2023/12/18 11:03:50;;;;;;;27.48;13.10;;;;;;;6.16;100.00;103016.78;6338663;22;20007;-87